Etusivu
METAR-TAF:

METAR-TAF

Lentoasemat :

Kapkaupungin kansainvälinen lentoasema

Kapkaupunki, Etelä-Afrikka

Leveyspiiri: 33-59S, Pituuspiiri: 018-36E, korkeus merenpinnasta: 42 m

Tämänhetkinen sää

Tämä raportti tehtiin 16 minuuttia sitten, kello 19.00 UTC
Tuuli 4 kn etelästä/lounaasta
Lämpötila 10°C
Kosteus 66%
Ilmanpaine 1031 hPa
Näkyvyys 10 km tai enemmän
ei pilviä alle 1500 m:ssä eikä cumulonimbus-pilviä

METAR: FACT 171900Z 21004KT CAVOK 10/04 Q1031 NOSIG

Aika: 21:16 (19:16 UTC)

Sääennuste

Tämä raportti tehtiin 3 tuntia ja 16 minuuttia sitten, kello 16.00 UTC
Ennuste voimassa 17. päivästä klo 18 UTC - 18. päivään klo 24 UTC
Tuuli 8 kn etelästä
Näkyvyys 10 km tai enemmän
Muutamia pilviä 3000 ft:n korkeudessa
From 18. päivästä klo 0300 UTC
Tuuli 4 kn pohjoisesta/koillisesta
Näkyvyys 10 km tai enemmän
ei pilviä alle 1500 m:ssä eikä cumulonimbus-pilviä

TAF: FACT 171600Z 1718/1824 17008KT 9999 FEW030 FM180300 03004KT CAVOK TX19/1812Z TN03/1806Z

Säähavainnot ja -ennusteet yli 4000 lentoasemalta (METAR- ja TAF-raportit).

Käytössä olevat sääasemat on merkitty karttaan keltaisilla ja punaisilla pisteillä.

Aseta hiiri pisteen päälle nähdäksesi sääaseman nimen.

Klikkaa sitten nähdäksesi säähavainnot ja -ennusteet.

Kartan vaihtaminen: klikkaa mustalla rastilla varustettuja vihreitä pisteitä, niin voit zoomata sisään; viivalla varustettua vihreää pistettä, niin voit zoomata ulos tai vihreitä nuolia, niin pääset viereisille kartoille.


METAR-TAF: